Mineral Wells, West Virginia
Current Conditions -  °F | °C
As of 4:53 PM on Thursday 23 Oct 2014 (Local Time) from KPKB Reporting Station
Few Clouds Few Clouds  
Wind Chill: 59°   Ceiling: Unl
Heat Index: 59°   Visibility: 10mi
Dew Point: 42°   Wind: 6mph
Humidity: 53%   Direction: 340°NNW
Pressure: 30.14"   Gusts: NA
Location:  39.21°N, 81.54°W
Report Text: KPKB 232053Z 34005KT 10SM FEW032 15/06 A3014 RMK AO2 SLP205 T01500056 57017
Loading
Personal Weather Stations






























Interactive Weather Map
Tropical Storm Tracking
New forecast layout! Learn more

10-Day Weather Forecast

Advertisements
Track Severe Weather on mobile